sensor_id;sensor_type;location;lat;lon;timestamp;P1;durP1;ratioP1;P2;durP2;ratioP2
18879;SDS011;9572;52.378;13.404;2022-09-25T00:00:55;5.18;;;4.68;;
18879;SDS011;9572;52.378;13.404;2022-09-25T00:03:24;6.07;;;4.13;;
18879;SDS011;9572;52.378;13.404;2022-09-25T00:05:58;9.10;;;4.88;;
18879;SDS011;9572;52.378;13.404;2022-09-25T00:08:26;10.82;;;4.75;;
18879;SDS011;9572;52.378;13.404;2022-09-25T00:10:53;7.25;;;4.63;;
18879;SDS011;9572;52.378;13.404;2022-09-25T00:13:21;7.45;;;3.85;;
18879;SDS011;9572;52.378;13.404;2022-09-25T00:15:49;5.72;;;4.35;;
18879;SDS011;9572;52.378;13.404;2022-09-25T00:18:18;6.22;;;4.75;;
18879;SDS011;9572;52.378;13.404;2022-09-25T00:21:07;5.05;;;4.32;;
18879;SDS011;9572;52.378;13.404;2022-09-25T00:23:36;6.97;;;4.25;;
18879;SDS011;9572;52.378;13.404;2022-09-25T00:26:03;5.88;;;3.70;;
18879;SDS011;9572;52.378;13.404;2022-09-25T00:28:32;5.13;;;4.57;;
18879;SDS011;9572;52.378;13.404;2022-09-25T00:31:00;6.70;;;4.28;;
18879;SDS011;9572;52.378;13.404;2022-09-25T00:33:28;4.68;;;4.20;;
18879;SDS011;9572;52.378;13.404;2022-09-25T00:35:59;4.68;;;4.10;;
18879;SDS011;9572;52.378;13.404;2022-09-25T00:38:27;5.22;;;4.40;;
18879;SDS011;9572;52.378;13.404;2022-09-25T00:41:05;6.00;;;4.50;;
18879;SDS011;9572;52.378;13.404;2022-09-25T00:43:34;10.23;;;4.15;;
18879;SDS011;9572;52.378;13.404;2022-09-25T00:46:04;7.00;;;4.30;;
18879;SDS011;9572;52.378;13.404;2022-09-25T00:48:37;5.43;;;4.45;;
18879;SDS011;9572;52.378;13.404;2022-09-25T00:51:11;5.10;;;4.10;;
18879;SDS011;9572;52.378;13.404;2022-09-25T00:53:40;5.95;;;4.20;;
18879;SDS011;9572;52.378;13.404;2022-09-25T00:56:07;5.47;;;3.95;;
18879;SDS011;9572;52.378;13.404;2022-09-25T00:58:37;6.82;;;4.18;;
18879;SDS011;9572;52.378;13.404;2022-09-25T01:01:06;5.07;;;4.47;;
18879;SDS011;9572;52.378;13.404;2022-09-25T01:03:34;5.32;;;4.10;;
18879;SDS011;9572;52.378;13.404;2022-09-25T01:06:03;4.47;;;4.07;;
18879;SDS011;9572;52.378;13.404;2022-09-25T01:08:30;5.30;;;4.38;;
18879;SDS011;9572;52.378;13.404;2022-09-25T01:10:58;4.18;;;3.80;;
18879;SDS011;9572;52.378;13.404;2022-09-25T01:13:26;4.18;;;3.72;;
18879;SDS011;9572;52.378;13.404;2022-09-25T01:15:56;5.80;;;4.20;;
18879;SDS011;9572;52.378;13.404;2022-09-25T01:18:31;4.45;;;4.05;;
18879;SDS011;9572;52.378;13.404;2022-09-25T01:21:17;9.85;;;4.72;;
18879;SDS011;9572;52.378;13.404;2022-09-25T01:24:02;6.82;;;4.75;;
18879;SDS011;9572;52.378;13.404;2022-09-25T01:27:05;5.13;;;4.63;;
18879;SDS011;9572;52.378;13.404;2022-09-25T01:29:49;5.88;;;4.68;;
18879;SDS011;9572;52.378;13.404;2022-09-25T01:32:19;5.70;;;4.72;;
18879;SDS011;9572;52.378;13.404;2022-09-25T01:34:53;6.82;;;4.38;;
18879;SDS011;9572;52.378;13.404;2022-09-25T01:37:26;4.65;;;3.90;;
18879;SDS011;9572;52.378;13.404;2022-09-25T01:40:00;6.30;;;4.47;;
18879;SDS011;9572;52.378;13.404;2022-09-25T01:42:34;6.55;;;5.00;;
18879;SDS011;9572;52.378;13.404;2022-09-25T01:45:07;8.30;;;4.55;;
18879;SDS011;9572;52.378;13.404;2022-09-25T01:47:40;5.68;;;4.97;;
18879;SDS011;9572;52.378;13.404;2022-09-25T01:50:13;6.80;;;5.47;;
18879;SDS011;9572;52.378;13.404;2022-09-25T01:52:45;8.20;;;5.65;;
18879;SDS011;9572;52.378;13.404;2022-09-25T01:55:15;6.10;;;5.30;;
18879;SDS011;9572;52.378;13.404;2022-09-25T01:57:47;5.93;;;4.90;;
18879;SDS011;9572;52.378;13.404;2022-09-25T02:00:20;6.07;;;4.90;;
18879;SDS011;9572;52.378;13.404;2022-09-25T02:02:50;5.40;;;4.80;;
18879;SDS011;9572;52.378;13.404;2022-09-25T02:05:21;6.00;;;5.18;;
18879;SDS011;9572;52.378;13.404;2022-09-25T02:07:57;5.07;;;4.68;;
18879;SDS011;9572;52.378;13.404;2022-09-25T02:10:28;6.65;;;4.78;;
18879;SDS011;9572;52.378;13.404;2022-09-25T02:13:00;6.72;;;4.72;;
18879;SDS011;9572;52.378;13.404;2022-09-25T02:15:34;7.90;;;5.40;;
18879;SDS011;9572;52.378;13.404;2022-09-25T02:18:05;4.47;;;4.07;;
18879;SDS011;9572;52.378;13.404;2022-09-25T02:20:52;4.88;;;4.18;;
18879;SDS011;9572;52.378;13.404;2022-09-25T02:23:26;5.38;;;4.68;;
18879;SDS011;9572;52.378;13.404;2022-09-25T02:26:02;5.78;;;4.55;;
18879;SDS011;9572;52.378;13.404;2022-09-25T02:28:32;5.03;;;4.28;;
18879;SDS011;9572;52.378;13.404;2022-09-25T02:31:01;5.32;;;4.85;;
18879;SDS011;9572;52.378;13.404;2022-09-25T02:33:32;6.45;;;5.00;;
18879;SDS011;9572;52.378;13.404;2022-09-25T02:35:59;6.28;;;4.68;;
18879;SDS011;9572;52.378;13.404;2022-09-25T02:38:28;6.05;;;4.75;;
18879;SDS011;9572;52.378;13.404;2022-09-25T02:40:59;6.68;;;5.35;;
18879;SDS011;9572;52.378;13.404;2022-09-25T02:43:33;8.07;;;4.97;;
18879;SDS011;9572;52.378;13.404;2022-09-25T02:46:12;5.93;;;5.30;;
18879;SDS011;9572;52.378;13.404;2022-09-25T02:48:48;7.35;;;5.53;;
18879;SDS011;9572;52.378;13.404;2022-09-25T02:51:20;7.18;;;5.68;;
18879;SDS011;9572;52.378;13.404;2022-09-25T02:53:54;8.73;;;6.10;;
18879;SDS011;9572;52.378;13.404;2022-09-25T02:56:30;6.28;;;5.53;;
18879;SDS011;9572;52.378;13.404;2022-09-25T02:59:01;7.90;;;5.40;;
18879;SDS011;9572;52.378;13.404;2022-09-25T03:01:33;7.57;;;5.20;;
18879;SDS011;9572;52.378;13.404;2022-09-25T03:04:02;6.00;;;5.15;;
18879;SDS011;9572;52.378;13.404;2022-09-25T03:06:30;5.90;;;5.20;;
18879;SDS011;9572;52.378;13.404;2022-09-25T03:08:57;7.18;;;5.45;;
18879;SDS011;9572;52.378;13.404;2022-09-25T03:11:26;7.78;;;5.85;;
18879;SDS011;9572;52.378;13.404;2022-09-25T03:13:56;11.88;;;6.00;;
18879;SDS011;9572;52.378;13.404;2022-09-25T03:16:27;8.15;;;6.18;;
18879;SDS011;9572;52.378;13.404;2022-09-25T03:18:59;8.27;;;6.00;;
18879;SDS011;9572;52.378;13.404;2022-09-25T03:21:27;7.45;;;5.97;;
18879;SDS011;9572;52.378;13.404;2022-09-25T03:23:54;7.35;;;5.25;;
18879;SDS011;9572;52.378;13.404;2022-09-25T03:26:22;8.68;;;5.93;;
18879;SDS011;9572;52.378;13.404;2022-09-25T03:28:49;7.05;;;5.90;;
18879;SDS011;9572;52.378;13.404;2022-09-25T03:31:16;9.00;;;6.30;;
18879;SDS011;9572;52.378;13.404;2022-09-25T03:33:43;7.68;;;6.13;;
18879;SDS011;9572;52.378;13.404;2022-09-25T03:36:13;9.88;;;5.93;;
18879;SDS011;9572;52.378;13.404;2022-09-25T03:38:42;6.85;;;5.82;;
18879;SDS011;9572;52.378;13.404;2022-09-25T03:41:12;6.55;;;5.40;;
18879;SDS011;9572;52.378;13.404;2022-09-25T03:43:43;9.90;;;5.88;;
18879;SDS011;9572;52.378;13.404;2022-09-25T03:46:12;8.55;;;5.85;;
18879;SDS011;9572;52.378;13.404;2022-09-25T03:48:40;6.63;;;5.40;;
18879;SDS011;9572;52.378;13.404;2022-09-25T03:51:07;7.45;;;5.85;;
18879;SDS011;9572;52.378;13.404;2022-09-25T03:53:36;7.05;;;5.75;;
18879;SDS011;9572;52.378;13.404;2022-09-25T03:56:05;7.00;;;5.50;;
18879;SDS011;9572;52.378;13.404;2022-09-25T03:58:33;7.07;;;5.60;;
18879;SDS011;9572;52.378;13.404;2022-09-25T04:01:00;7.28;;;5.40;;
18879;SDS011;9572;52.378;13.404;2022-09-25T04:03:27;7.47;;;5.63;;
18879;SDS011;9572;52.378;13.404;2022-09-25T04:05:57;11.00;;;6.50;;
18879;SDS011;9572;52.378;13.404;2022-09-25T04:08:26;7.30;;;5.97;;
18879;SDS011;9572;52.378;13.404;2022-09-25T04:10:55;6.57;;;5.85;;
18879;SDS011;9572;52.378;13.404;2022-09-25T04:13:23;8.65;;;5.90;;
18879;SDS011;9572;52.378;13.404;2022-09-25T04:15:51;8.38;;;5.95;;
18879;SDS011;9572;52.378;13.404;2022-09-25T04:18:18;8.07;;;5.88;;
18879;SDS011;9572;52.378;13.404;2022-09-25T04:20:44;7.45;;;5.55;;
18879;SDS011;9572;52.378;13.404;2022-09-25T04:23:11;8.93;;;6.55;;
18879;SDS011;9572;52.378;13.404;2022-09-25T04:25:38;8.45;;;6.45;;
18879;SDS011;9572;52.378;13.404;2022-09-25T04:28:06;8.45;;;6.85;;
18879;SDS011;9572;52.378;13.404;2022-09-25T04:30:35;7.68;;;6.32;;
18879;SDS011;9572;52.378;13.404;2022-09-25T04:33:02;6.45;;;5.80;;
18879;SDS011;9572;52.378;13.404;2022-09-25T04:35:46;6.45;;;5.57;;
18879;SDS011;9572;52.378;13.404;2022-09-25T04:38:13;6.25;;;5.60;;
18879;SDS011;9572;52.378;13.404;2022-09-25T04:40:40;9.60;;;6.28;;
18879;SDS011;9572;52.378;13.404;2022-09-25T04:43:08;6.47;;;5.82;;
18879;SDS011;9572;52.378;13.404;2022-09-25T04:45:35;6.72;;;6.00;;
18879;SDS011;9572;52.378;13.404;2022-09-25T04:48:02;7.10;;;6.03;;
18879;SDS011;9572;52.378;13.404;2022-09-25T04:50:29;8.65;;;6.50;;
18879;SDS011;9572;52.378;13.404;2022-09-25T04:52:57;8.52;;;6.25;;
18879;SDS011;9572;52.378;13.404;2022-09-25T04:55:25;9.38;;;6.13;;
18879;SDS011;9572;52.378;13.404;2022-09-25T04:57:52;9.52;;;6.90;;
18879;SDS011;9572;52.378;13.404;2022-09-25T05:00:21;7.60;;;6.40;;
18879;SDS011;9572;52.378;13.404;2022-09-25T05:02:49;9.38;;;6.68;;
18879;SDS011;9572;52.378;13.404;2022-09-25T05:05:16;10.88;;;6.88;;
18879;SDS011;9572;52.378;13.404;2022-09-25T05:07:49;10.05;;;7.00;;
18879;SDS011;9572;52.378;13.404;2022-09-25T05:10:17;8.13;;;6.65;;
18879;SDS011;9572;52.378;13.404;2022-09-25T05:12:45;8.82;;;6.80;;
18879;SDS011;9572;52.378;13.404;2022-09-25T05:15:12;9.07;;;7.20;;
18879;SDS011;9572;52.378;13.404;2022-09-25T05:17:41;9.82;;;7.00;;
18879;SDS011;9572;52.378;13.404;2022-09-25T05:20:08;9.95;;;7.28;;
18879;SDS011;9572;52.378;13.404;2022-09-25T05:22:35;9.30;;;7.53;;
18879;SDS011;9572;52.378;13.404;2022-09-25T05:25:02;9.00;;;6.47;;
18879;SDS011;9572;52.378;13.404;2022-09-25T05:27:31;8.65;;;6.60;;
18879;SDS011;9572;52.378;13.404;2022-09-25T05:29:59;9.18;;;6.28;;
18879;SDS011;9572;52.378;13.404;2022-09-25T05:32:26;9.85;;;7.43;;
18879;SDS011;9572;52.378;13.404;2022-09-25T05:34:56;8.50;;;7.10;;
18879;SDS011;9572;52.378;13.404;2022-09-25T05:37:23;10.57;;;7.00;;
18879;SDS011;9572;52.378;13.404;2022-09-25T05:39:50;9.40;;;7.32;;
18879;SDS011;9572;52.378;13.404;2022-09-25T05:42:16;7.00;;;6.28;;
18879;SDS011;9572;52.378;13.404;2022-09-25T05:44:44;10.07;;;6.85;;
18879;SDS011;9572;52.378;13.404;2022-09-25T05:47:11;9.52;;;6.45;;
18879;SDS011;9572;52.378;13.404;2022-09-25T05:49:38;10.57;;;7.82;;
18879;SDS011;9572;52.378;13.404;2022-09-25T05:52:06;8.70;;;7.05;;
18879;SDS011;9572;52.378;13.404;2022-09-25T05:54:33;8.40;;;6.72;;
18879;SDS011;9572;52.378;13.404;2022-09-25T05:57:00;10.88;;;7.28;;
18879;SDS011;9572;52.378;13.404;2022-09-25T05:59:27;10.25;;;7.32;;
18879;SDS011;9572;52.378;13.404;2022-09-25T06:01:54;10.38;;;7.50;;
18879;SDS011;9572;52.378;13.404;2022-09-25T06:04:21;10.93;;;7.30;;
18879;SDS011;9572;52.378;13.404;2022-09-25T06:06:49;8.55;;;7.10;;
18879;SDS011;9572;52.378;13.404;2022-09-25T06:09:17;9.70;;;7.93;;
18879;SDS011;9572;52.378;13.404;2022-09-25T06:11:44;11.77;;;7.55;;
18879;SDS011;9572;52.378;13.404;2022-09-25T06:14:11;11.63;;;6.95;;
18879;SDS011;9572;52.378;13.404;2022-09-25T06:16:38;11.35;;;7.25;;
18879;SDS011;9572;52.378;13.404;2022-09-25T06:19:05;11.63;;;6.93;;
18879;SDS011;9572;52.378;13.404;2022-09-25T06:21:33;11.15;;;7.32;;
18879;SDS011;9572;52.378;13.404;2022-09-25T06:24:00;10.90;;;7.88;;
18879;SDS011;9572;52.378;13.404;2022-09-25T06:26:28;11.95;;;8.05;;
18879;SDS011;9572;52.378;13.404;2022-09-25T06:28:56;9.45;;;7.85;;
18879;SDS011;9572;52.378;13.404;2022-09-25T06:31:24;9.65;;;7.82;;
18879;SDS011;9572;52.378;13.404;2022-09-25T06:33:51;11.80;;;8.57;;
18879;SDS011;9572;52.378;13.404;2022-09-25T06:36:18;12.93;;;8.48;;
18879;SDS011;9572;52.378;13.404;2022-09-25T06:38:47;11.55;;;7.65;;
18879;SDS011;9572;52.378;13.404;2022-09-25T06:41:14;11.68;;;9.23;;
18879;SDS011;9572;52.378;13.404;2022-09-25T06:43:43;9.02;;;7.20;;
18879;SDS011;9572;52.378;13.404;2022-09-25T06:46:10;11.93;;;8.90;;
18879;SDS011;9572;52.378;13.404;2022-09-25T06:48:37;17.42;;;9.52;;
18879;SDS011;9572;52.378;13.404;2022-09-25T06:51:04;14.25;;;8.95;;
18879;SDS011;9572;52.378;13.404;2022-09-25T06:53:32;12.05;;;10.02;;
18879;SDS011;9572;52.378;13.404;2022-09-25T06:56:00;13.52;;;8.50;;
18879;SDS011;9572;52.378;13.404;2022-09-25T06:58:27;13.38;;;8.85;;
18879;SDS011;9572;52.378;13.404;2022-09-25T07:00:57;12.77;;;9.32;;
18879;SDS011;9572;52.378;13.404;2022-09-25T07:03:24;18.02;;;10.10;;
18879;SDS011;9572;52.378;13.404;2022-09-25T07:06:09;12.82;;;8.98;;
18879;SDS011;9572;52.378;13.404;2022-09-25T07:08:36;12.07;;;9.55;;
18879;SDS011;9572;52.378;13.404;2022-09-25T07:11:04;13.55;;;9.10;;
18879;SDS011;9572;52.378;13.404;2022-09-25T07:13:31;11.90;;;8.18;;
18879;SDS011;9572;52.378;13.404;2022-09-25T07:16:02;13.63;;;9.50;;
18879;SDS011;9572;52.378;13.404;2022-09-25T07:18:30;12.88;;;9.63;;
18879;SDS011;9572;52.378;13.404;2022-09-25T07:21:01;11.02;;;9.05;;
18879;SDS011;9572;52.378;13.404;2022-09-25T07:23:29;14.25;;;8.70;;
18879;SDS011;9572;52.378;13.404;2022-09-25T07:26:02;10.55;;;7.57;;
18879;SDS011;9572;52.378;13.404;2022-09-25T07:28:30;10.88;;;7.93;;
18879;SDS011;9572;52.378;13.404;2022-09-25T07:30:57;10.85;;;8.00;;
18879;SDS011;9572;52.378;13.404;2022-09-25T07:33:25;12.20;;;9.38;;
18879;SDS011;9572;52.378;13.404;2022-09-25T07:35:52;14.23;;;9.57;;
18879;SDS011;9572;52.378;13.404;2022-09-25T07:38:19;12.70;;;8.65;;
18879;SDS011;9572;52.378;13.404;2022-09-25T07:40:46;14.95;;;9.40;;
18879;SDS011;9572;52.378;13.404;2022-09-25T07:43:14;10.43;;;8.55;;
18879;SDS011;9572;52.378;13.404;2022-09-25T07:45:43;11.77;;;8.93;;
18879;SDS011;9572;52.378;13.404;2022-09-25T07:48:17;12.52;;;8.32;;
18879;SDS011;9572;52.378;13.404;2022-09-25T07:50:46;12.93;;;9.40;;
18879;SDS011;9572;52.378;13.404;2022-09-25T07:53:14;11.18;;;8.85;;
18879;SDS011;9572;52.378;13.404;2022-09-25T07:55:42;12.35;;;9.23;;
18879;SDS011;9572;52.378;13.404;2022-09-25T07:58:09;11.40;;;7.80;;
18879;SDS011;9572;52.378;13.404;2022-09-25T08:00:36;13.23;;;8.85;;
18879;SDS011;9572;52.378;13.404;2022-09-25T08:03:05;11.27;;;9.43;;
18879;SDS011;9572;52.378;13.404;2022-09-25T08:05:35;12.65;;;9.35;;
18879;SDS011;9572;52.378;13.404;2022-09-25T08:08:03;12.43;;;9.55;;
18879;SDS011;9572;52.378;13.404;2022-09-25T08:10:30;12.13;;;9.20;;
18879;SDS011;9572;52.378;13.404;2022-09-25T08:12:57;12.73;;;9.35;;
18879;SDS011;9572;52.378;13.404;2022-09-25T08:15:24;20.52;;;10.20;;
18879;SDS011;9572;52.378;13.404;2022-09-25T08:17:51;12.00;;;10.02;;
18879;SDS011;9572;52.378;13.404;2022-09-25T08:20:19;11.95;;;9.23;;
18879;SDS011;9572;52.378;13.404;2022-09-25T08:22:46;11.90;;;8.98;;
18879;SDS011;9572;52.378;13.404;2022-09-25T08:25:14;11.60;;;9.32;;
18879;SDS011;9572;52.378;13.404;2022-09-25T08:27:41;11.27;;;9.10;;
18879;SDS011;9572;52.378;13.404;2022-09-25T08:30:09;17.23;;;10.00;;
18879;SDS011;9572;52.378;13.404;2022-09-25T08:32:37;11.27;;;9.40;;
18879;SDS011;9572;52.378;13.404;2022-09-25T08:35:05;11.50;;;9.25;;
18879;SDS011;9572;52.378;13.404;2022-09-25T08:37:32;11.75;;;8.85;;
18879;SDS011;9572;52.378;13.404;2022-09-25T08:39:59;16.10;;;8.95;;
18879;SDS011;9572;52.378;13.404;2022-09-25T08:42:29;10.80;;;7.72;;
18879;SDS011;9572;52.378;13.404;2022-09-25T08:45:01;9.90;;;7.32;;
18879;SDS011;9572;52.378;13.404;2022-09-25T08:47:49;11.73;;;8.57;;
18879;SDS011;9572;52.378;13.404;2022-09-25T08:50:36;10.32;;;8.20;;
18879;SDS011;9572;52.378;13.404;2022-09-25T08:53:04;9.75;;;7.93;;
18879;SDS011;9572;52.378;13.404;2022-09-25T08:55:34;14.05;;;9.57;;
18879;SDS011;9572;52.378;13.404;2022-09-25T08:58:24;12.52;;;9.82;;
18879;SDS011;9572;52.378;13.404;2022-09-25T09:00:55;10.48;;;7.97;;
18879;SDS011;9572;52.378;13.404;2022-09-25T09:03:25;11.55;;;8.05;;
18879;SDS011;9572;52.378;13.404;2022-09-25T09:05:55;13.02;;;9.63;;
18879;SDS011;9572;52.378;13.404;2022-09-25T09:08:27;10.63;;;8.85;;
18879;SDS011;9572;52.378;13.404;2022-09-25T09:10:56;13.95;;;9.45;;
18879;SDS011;9572;52.378;13.404;2022-09-25T09:13:30;14.13;;;8.57;;
18879;SDS011;9572;52.378;13.404;2022-09-25T09:16:01;13.13;;;8.48;;
18879;SDS011;9572;52.378;13.404;2022-09-25T09:18:35;13.50;;;9.32;;
18879;SDS011;9572;52.378;13.404;2022-09-25T09:21:05;14.25;;;8.52;;
18879;SDS011;9572;52.378;13.404;2022-09-25T09:23:39;12.52;;;8.02;;
18879;SDS011;9572;52.378;13.404;2022-09-25T09:26:18;7.75;;;6.72;;
18879;SDS011;9572;52.378;13.404;2022-09-25T09:28:59;10.85;;;8.10;;
18879;SDS011;9572;52.378;13.404;2022-09-25T09:31:35;9.65;;;7.93;;
18879;SDS011;9572;52.378;13.404;2022-09-25T09:34:18;10.35;;;7.90;;
18879;SDS011;9572;52.378;13.404;2022-09-25T09:37:09;10.32;;;8.73;;
18879;SDS011;9572;52.378;13.404;2022-09-25T09:39:43;9.52;;;8.27;;
18879;SDS011;9572;52.378;13.404;2022-09-25T09:42:19;10.23;;;7.93;;
18879;SDS011;9572;52.378;13.404;2022-09-25T09:44:54;8.70;;;7.10;;
18879;SDS011;9572;52.378;13.404;2022-09-25T09:47:30;10.73;;;8.68;;
18879;SDS011;9572;52.378;13.404;2022-09-25T09:50:12;10.68;;;8.30;;
18879;SDS011;9572;52.378;13.404;2022-09-25T09:52:46;10.32;;;8.00;;
18879;SDS011;9572;52.378;13.404;2022-09-25T09:55:18;9.30;;;8.07;;
18879;SDS011;9572;52.378;13.404;2022-09-25T09:57:51;10.13;;;8.05;;
18879;SDS011;9572;52.378;13.404;2022-09-25T10:00:21;11.45;;;8.57;;
18879;SDS011;9572;52.378;13.404;2022-09-25T10:02:49;11.02;;;8.43;;
18879;SDS011;9572;52.378;13.404;2022-09-25T10:05:23;10.63;;;8.18;;
18879;SDS011;9572;52.378;13.404;2022-09-25T10:07:53;8.75;;;7.72;;
18879;SDS011;9572;52.378;13.404;2022-09-25T10:10:21;10.82;;;8.60;;
18879;SDS011;9572;52.378;13.404;2022-09-25T10:12:54;13.40;;;8.95;;
18879;SDS011;9572;52.378;13.404;2022-09-25T10:15:27;12.65;;;8.52;;
18879;SDS011;9572;52.378;13.404;2022-09-25T10:17:58;10.63;;;7.68;;
18879;SDS011;9572;52.378;13.404;2022-09-25T10:20:28;9.57;;;7.32;;
18879;SDS011;9572;52.378;13.404;2022-09-25T10:23:02;11.48;;;8.93;;
18879;SDS011;9572;52.378;13.404;2022-09-25T10:25:35;12.80;;;8.23;;
18879;SDS011;9572;52.378;13.404;2022-09-25T10:30:56;8.95;;;7.07;;
18879;SDS011;9572;52.378;13.404;2022-09-25T10:33:25;8.73;;;7.30;;
18879;SDS011;9572;52.378;13.404;2022-09-25T10:35:54;10.02;;;6.63;;
18879;SDS011;9572;52.378;13.404;2022-09-25T10:38:26;7.85;;;6.57;;
18879;SDS011;9572;52.378;13.404;2022-09-25T10:41:01;12.57;;;6.97;;
18879;SDS011;9572;52.378;13.404;2022-09-25T10:43:31;8.68;;;6.95;;
18879;SDS011;9572;52.378;13.404;2022-09-25T10:46:06;9.50;;;7.03;;
18879;SDS011;9572;52.378;13.404;2022-09-25T10:48:37;8.68;;;6.30;;
18879;SDS011;9572;52.378;13.404;2022-09-25T10:51:22;9.88;;;7.70;;
18879;SDS011;9572;52.378;13.404;2022-09-25T10:53:50;9.27;;;7.35;;
18879;SDS011;9572;52.378;13.404;2022-09-25T10:56:18;12.10;;;6.88;;
18879;SDS011;9572;52.378;13.404;2022-09-25T10:58:50;9.00;;;7.07;;
18879;SDS011;9572;52.378;13.404;2022-09-25T11:01:21;9.27;;;7.43;;
18879;SDS011;9572;52.378;13.404;2022-09-25T11:03:57;10.25;;;7.60;;
18879;SDS011;9572;52.378;13.404;2022-09-25T11:06:25;9.98;;;7.28;;
18879;SDS011;9572;52.378;13.404;2022-09-25T11:08:55;9.45;;;7.28;;
18879;SDS011;9572;52.378;13.404;2022-09-25T11:11:28;10.68;;;6.95;;
18879;SDS011;9572;52.378;13.404;2022-09-25T11:13:56;10.70;;;6.97;;
18879;SDS011;9572;52.378;13.404;2022-09-25T11:16:47;7.78;;;6.97;;
18879;SDS011;9572;52.378;13.404;2022-09-25T11:19:22;8.50;;;6.50;;
18879;SDS011;9572;52.378;13.404;2022-09-25T11:21:57;7.70;;;6.32;;
18879;SDS011;9572;52.378;13.404;2022-09-25T11:24:34;7.60;;;6.68;;
18879;SDS011;9572;52.378;13.404;2022-09-25T11:27:17;10.10;;;6.53;;
18879;SDS011;9572;52.378;13.404;2022-09-25T11:29:59;8.65;;;7.03;;
18879;SDS011;9572;52.378;13.404;2022-09-25T11:32:33;10.48;;;7.13;;
18879;SDS011;9572;52.378;13.404;2022-09-25T11:35:20;7.90;;;6.13;;
18879;SDS011;9572;52.378;13.404;2022-09-25T11:38:00;6.55;;;5.95;;
18879;SDS011;9572;52.378;13.404;2022-09-25T11:40:36;8.20;;;6.75;;
18879;SDS011;9572;52.378;13.404;2022-09-25T11:48:39;7.40;;;5.88;;
18879;SDS011;9572;52.378;13.404;2022-09-25T11:51:16;9.57;;;6.22;;
18879;SDS011;9572;52.378;13.404;2022-09-25T11:53:58;8.65;;;6.82;;
18879;SDS011;9572;52.378;13.404;2022-09-25T11:56:34;7.95;;;6.28;;
18879;SDS011;9572;52.378;13.404;2022-09-25T11:59:19;12.13;;;5.85;;
18879;SDS011;9572;52.378;13.404;2022-09-25T12:02:14;9.60;;;5.57;;
18879;SDS011;9572;52.378;13.404;2022-09-25T12:04:58;6.38;;;5.75;;
18879;SDS011;9572;52.378;13.404;2022-09-25T12:07:45;7.45;;;5.65;;
18879;SDS011;9572;52.378;13.404;2022-09-25T12:10:35;8.32;;;6.13;;
18879;SDS011;9572;52.378;13.404;2022-09-25T12:13:17;6.93;;;5.95;;
18879;SDS011;9572;52.378;13.404;2022-09-25T12:15:57;6.65;;;5.45;;
18879;SDS011;9572;52.378;13.404;2022-09-25T12:18:41;6.97;;;6.10;;
18879;SDS011;9572;52.378;13.404;2022-09-25T12:21:20;6.75;;;5.35;;
18879;SDS011;9572;52.378;13.404;2022-09-25T12:23:59;6.88;;;5.93;;
18879;SDS011;9572;52.378;13.404;2022-09-25T12:26:35;8.10;;;5.38;;
18879;SDS011;9572;52.378;13.404;2022-09-25T12:29:11;7.97;;;6.03;;
18879;SDS011;9572;52.378;13.404;2022-09-25T12:31:51;9.35;;;6.40;;
18879;SDS011;9572;52.378;13.404;2022-09-25T12:34:32;5.80;;;5.20;;
18879;SDS011;9572;52.378;13.404;2022-09-25T12:37:15;10.70;;;6.47;;
18879;SDS011;9572;52.378;13.404;2022-09-25T12:39:47;7.28;;;5.50;;
18879;SDS011;9572;52.378;13.404;2022-09-25T12:42:17;7.82;;;5.88;;
18879;SDS011;9572;52.378;13.404;2022-09-25T12:44:50;9.30;;;6.22;;
18879;SDS011;9572;52.378;13.404;2022-09-25T12:47:24;8.10;;;5.78;;
18879;SDS011;9572;52.378;13.404;2022-09-25T12:49:57;7.85;;;5.63;;
18879;SDS011;9572;52.378;13.404;2022-09-25T12:52:33;9.07;;;5.63;;
18879;SDS011;9572;52.378;13.404;2022-09-25T12:55:08;6.68;;;5.55;;
18879;SDS011;9572;52.378;13.404;2022-09-25T12:57:40;5.40;;;4.68;;
18879;SDS011;9572;52.378;13.404;2022-09-25T13:00:14;4.95;;;4.45;;
18879;SDS011;9572;52.378;13.404;2022-09-25T13:02:46;5.13;;;4.57;;
18879;SDS011;9572;52.378;13.404;2022-09-25T13:05:18;5.22;;;4.50;;
18879;SDS011;9572;52.378;13.404;2022-09-25T13:07:50;4.60;;;4.20;;
18879;SDS011;9572;52.378;13.404;2022-09-25T13:10:24;7.70;;;4.85;;
18879;SDS011;9572;52.378;13.404;2022-09-25T13:12:57;6.35;;;3.97;;
18879;SDS011;9572;52.378;13.404;2022-09-25T13:15:27;5.53;;;4.05;;
18879;SDS011;9572;52.378;13.404;2022-09-25T13:17:57;8.68;;;6.38;;
18879;SDS011;9572;52.378;13.404;2022-09-25T13:20:40;5.90;;;4.32;;
18879;SDS011;9572;52.378;13.404;2022-09-25T13:23:15;4.65;;;3.95;;
18879;SDS011;9572;52.378;13.404;2022-09-25T13:25:52;5.40;;;3.75;;
18879;SDS011;9572;52.378;13.404;2022-09-25T13:28:26;5.10;;;4.13;;
18879;SDS011;9572;52.378;13.404;2022-09-25T13:30:56;4.70;;;4.20;;
18879;SDS011;9572;52.378;13.404;2022-09-25T13:33:30;4.38;;;3.70;;
18879;SDS011;9572;52.378;13.404;2022-09-25T13:36:08;5.43;;;4.55;;
18879;SDS011;9572;52.378;13.404;2022-09-25T13:38:39;7.78;;;4.32;;
18879;SDS011;9572;52.378;13.404;2022-09-25T13:41:27;6.18;;;4.65;;
18879;SDS011;9572;52.378;13.404;2022-09-25T13:50:04;4.35;;;3.78;;
18879;SDS011;9572;52.378;13.404;2022-09-25T13:53:03;3.78;;;3.47;;
18879;SDS011;9572;52.378;13.404;2022-09-25T13:58:59;4.68;;;3.50;;
18879;SDS011;9572;52.378;13.404;2022-09-25T14:01:50;3.28;;;2.97;;
18879;SDS011;9572;52.378;13.404;2022-09-25T14:07:06;5.90;;;3.80;;
18879;SDS011;9572;52.378;13.404;2022-09-25T14:09:41;4.22;;;3.58;;
18879;SDS011;9572;52.378;13.404;2022-09-25T14:12:15;5.97;;;3.83;;
18879;SDS011;9572;52.378;13.404;2022-09-25T14:14:49;5.03;;;3.40;;
18879;SDS011;9572;52.378;13.404;2022-09-25T14:17:21;4.97;;;3.63;;
18879;SDS011;9572;52.378;13.404;2022-09-25T14:19:50;3.72;;;3.40;;
18879;SDS011;9572;52.378;13.404;2022-09-25T14:22:21;4.13;;;3.53;;
18879;SDS011;9572;52.378;13.404;2022-09-25T14:24:55;8.32;;;3.65;;
18879;SDS011;9572;52.378;13.404;2022-09-25T14:27:24;3.92;;;3.53;;
18879;SDS011;9572;52.378;13.404;2022-09-25T14:30:01;2.83;;;2.63;;
18879;SDS011;9572;52.378;13.404;2022-09-25T14:32:36;6.57;;;3.30;;
18879;SDS011;9572;52.378;13.404;2022-09-25T14:35:24;3.50;;;3.20;;
18879;SDS011;9572;52.378;13.404;2022-09-25T14:38:19;3.85;;;3.50;;
18879;SDS011;9572;52.378;13.404;2022-09-25T14:41:22;6.90;;;3.40;;
18879;SDS011;9572;52.378;13.404;2022-09-25T14:44:05;3.85;;;3.00;;
18879;SDS011;9572;52.378;13.404;2022-09-25T14:47:08;4.10;;;3.70;;
18879;SDS011;9572;52.378;13.404;2022-09-25T14:49:39;3.58;;;3.25;;
18879;SDS011;9572;52.378;13.404;2022-09-25T14:52:09;5.43;;;4.28;;
18879;SDS011;9572;52.378;13.404;2022-09-25T14:54:40;4.40;;;3.60;;
18879;SDS011;9572;52.378;13.404;2022-09-25T14:57:10;3.53;;;3.22;;
18879;SDS011;9572;52.378;13.404;2022-09-25T14:59:43;7.95;;;5.53;;
18879;SDS011;9572;52.378;13.404;2022-09-25T15:02:14;6.82;;;5.43;;
18879;SDS011;9572;52.378;13.404;2022-09-25T15:04:43;5.65;;;5.10;;
18879;SDS011;9572;52.378;13.404;2022-09-25T15:07:13;4.60;;;4.20;;
18879;SDS011;9572;52.378;13.404;2022-09-25T15:09:42;5.30;;;4.55;;
18879;SDS011;9572;52.378;13.404;2022-09-25T15:12:17;4.57;;;4.10;;
18879;SDS011;9572;52.378;13.404;2022-09-25T15:15:03;4.82;;;4.35;;
18879;SDS011;9572;52.378;13.404;2022-09-25T15:17:33;6.63;;;4.57;;
18879;SDS011;9572;52.378;13.404;2022-09-25T15:20:08;5.88;;;5.20;;
18879;SDS011;9572;52.378;13.404;2022-09-25T15:22:38;5.68;;;5.07;;
18879;SDS011;9572;52.378;13.404;2022-09-25T15:25:07;6.90;;;6.03;;
18879;SDS011;9572;52.378;13.404;2022-09-25T15:27:39;7.25;;;6.30;;
18879;SDS011;9572;52.378;13.404;2022-09-25T15:30:13;6.68;;;5.50;;
18879;SDS011;9572;52.378;13.404;2022-09-25T15:32:41;6.82;;;5.68;;